createdAt,value
2022-08-19T00:02:12.750Z,101757.00
2022-08-19T00:04:45.751Z,101748.00
2022-08-19T00:07:19.277Z,101757.00
2022-08-19T00:09:53.125Z,101735.00
2022-08-19T00:12:27.398Z,101734.00
2022-08-19T00:15:00.309Z,101731.00
2022-08-19T00:17:33.146Z,101745.00
2022-08-19T00:20:06.295Z,101732.00
2022-08-19T00:22:39.110Z,101712.00
2022-08-19T00:25:13.221Z,101723.00
2022-08-19T00:27:49.559Z,101711.00
2022-08-19T00:30:22.585Z,101710.00
2022-08-19T00:32:56.745Z,101734.00
2022-08-19T00:35:32.559Z,101730.00
2022-08-19T00:38:05.539Z,101730.00
2022-08-19T00:40:38.488Z,101747.00
2022-08-19T00:43:16.347Z,101728.00
2022-08-19T00:45:49.089Z,101731.00
2022-08-19T00:48:23.637Z,101732.00
2022-08-19T00:54:02.561Z,101733.00
2022-08-19T00:56:36.948Z,101726.00
2022-08-19T00:59:11.989Z,101724.00
2022-08-19T01:01:46.546Z,101740.00
2022-08-19T01:04:19.532Z,101729.00
2022-08-19T01:06:52.852Z,101728.00
2022-08-19T01:09:25.749Z,101726.00
2022-08-19T01:11:59.389Z,101715.00
2022-08-19T01:14:32.482Z,101734.00
2022-08-19T01:17:06.021Z,101706.00
2022-08-19T01:19:46.582Z,101697.00
2022-08-19T01:22:36.635Z,101691.00
2022-08-19T01:25:14.922Z,101698.00
2022-08-19T01:27:46.188Z,101697.00
2022-08-19T01:30:23.683Z,101685.00
2022-08-19T01:32:57.219Z,101694.00
2022-08-19T01:35:31.553Z,101691.00
2022-08-19T01:38:13.608Z,101682.00
2022-08-19T01:40:47.799Z,101680.00
2022-08-19T01:43:24.459Z,101688.00
2022-08-19T01:45:57.362Z,101683.00
2022-08-19T01:48:31.264Z,101684.00
2022-08-19T01:51:04.506Z,101687.00
2022-08-19T01:53:41.449Z,101690.00
2022-08-19T01:56:14.693Z,101685.00
2022-08-19T01:58:52.385Z,101691.00
2022-08-19T02:01:25.636Z,101684.00
2022-08-19T02:03:59.472Z,101684.00
2022-08-19T02:06:32.809Z,101667.00
2022-08-19T02:09:05.710Z,101666.00
2022-08-19T02:11:40.404Z,101671.00
2022-08-19T02:14:14.881Z,101673.00
2022-08-19T02:16:47.771Z,101673.00
2022-08-19T02:19:20.827Z,101676.00
2022-08-19T02:21:53.840Z,101671.00
2022-08-19T02:24:33.163Z,101667.00
2022-08-19T02:27:05.739Z,101669.00
2022-08-19T02:29:38.596Z,101677.00
2022-08-19T02:32:12.020Z,101680.00
2022-08-19T02:34:45.264Z,101672.00
2022-08-19T02:37:36.103Z,101672.00
2022-08-19T02:40:09.820Z,101679.00
2022-08-19T02:42:43.810Z,101677.00
2022-08-19T02:45:17.474Z,101674.00
2022-08-19T02:47:50.317Z,101670.00
2022-08-19T02:50:23.317Z,101660.00
2022-08-19T02:52:56.280Z,101670.00
2022-08-19T02:55:29.134Z,101667.00
2022-08-19T02:58:02.636Z,101667.00
2022-08-19T03:00:36.808Z,101663.00
2022-08-19T03:03:10.793Z,101658.00
2022-08-19T03:05:47.048Z,101648.00
2022-08-19T03:08:18.710Z,101651.00
2022-08-19T03:10:54.587Z,101646.00
2022-08-19T03:13:28.706Z,101636.00
2022-08-19T03:16:01.533Z,101637.00
2022-08-19T03:18:34.657Z,101641.00
2022-08-19T03:21:12.242Z,101636.00
2022-08-19T03:23:46.983Z,101633.00
2022-08-19T03:26:20.041Z,101632.00
2022-08-19T03:28:57.796Z,101630.00
2022-08-19T03:31:45.039Z,101622.00
2022-08-19T03:34:02.796Z,101614.00
2022-08-19T03:36:36.800Z,101616.00
2022-08-19T03:39:11.036Z,101602.00
2022-08-19T03:41:46.561Z,101617.00
2022-08-19T03:44:20.767Z,101618.00
2022-08-19T03:46:55.960Z,101625.00
2022-08-19T03:49:33.903Z,101634.00
2022-08-19T03:52:08.708Z,101642.00
2022-08-19T03:54:42.054Z,101650.00
2022-08-19T03:57:18.818Z,101653.00
2022-08-19T03:59:51.783Z,101656.00
2022-08-19T04:02:24.648Z,101654.00
2022-08-19T04:04:58.570Z,101665.00
2022-08-19T04:07:31.224Z,101654.00
2022-08-19T04:10:03.964Z,101669.00
2022-08-19T04:12:37.558Z,101663.00
2022-08-19T04:15:11.335Z,101674.00
2022-08-19T04:17:44.190Z,101673.00
2022-08-19T04:20:18.117Z,101681.00
2022-08-19T04:23:08.408Z,101689.00
2022-08-19T04:25:52.651Z,101681.00
2022-08-19T04:28:25.811Z,101683.00
2022-08-19T04:30:59.694Z,101683.00
2022-08-19T04:33:32.809Z,101673.00
2022-08-19T04:36:05.595Z,101676.00
2022-08-19T04:38:38.552Z,101677.00
2022-08-19T04:41:31.659Z,101684.00
2022-08-19T04:44:05.158Z,101685.00
2022-08-19T04:46:40.006Z,101677.00
2022-08-19T04:49:16.462Z,101676.00
2022-08-19T04:51:51.371Z,101691.00
2022-08-19T04:54:37.386Z,101683.00
2022-08-19T04:56:59.331Z,101692.00
2022-08-19T04:59:32.190Z,101682.00
2022-08-19T05:02:09.048Z,101696.00
2022-08-19T05:04:42.272Z,101687.00
2022-08-19T05:07:15.178Z,101690.00
2022-08-19T05:09:58.356Z,101687.00
2022-08-19T05:12:22.216Z,101693.00
2022-08-19T05:14:57.091Z,101698.00
2022-08-19T05:17:33.589Z,101697.00
2022-08-19T05:20:27.814Z,101691.00
2022-08-19T05:23:00.732Z,101701.00
2022-08-19T05:25:33.358Z,101700.00
2022-08-19T05:28:06.095Z,101706.00
2022-08-19T05:30:47.183Z,101723.00
2022-08-19T05:33:14.163Z,101717.00
2022-08-19T05:35:47.071Z,101721.00
2022-08-19T05:38:20.381Z,101735.00
2022-08-19T05:40:53.409Z,101728.00
2022-08-19T05:43:26.233Z,101721.00
2022-08-19T05:45:59.179Z,101725.00
2022-08-19T05:48:31.986Z,101714.00
2022-08-19T05:51:09.644Z,101728.00
2022-08-19T05:53:42.685Z,101720.00
2022-08-19T05:56:18.544Z,101707.00
2022-08-19T05:58:51.676Z,101717.00
2022-08-19T06:01:24.596Z,101719.00
2022-08-19T06:03:58.053Z,101709.00
2022-08-19T06:06:31.027Z,101709.00
2022-08-19T06:09:04.066Z,101716.00
2022-08-19T06:11:42.237Z,101698.00
2022-08-19T06:14:18.091Z,101697.00
2022-08-19T06:16:51.602Z,101696.00
2022-08-19T06:19:31.271Z,101682.00
2022-08-19T06:22:04.800Z,101664.00
2022-08-19T06:24:38.262Z,101679.00
2022-08-19T06:27:11.279Z,101664.00
2022-08-19T06:29:45.444Z,101673.00
2022-08-19T06:32:19.683Z,101663.00
2022-08-19T06:34:52.429Z,101662.00
2022-08-19T06:37:25.586Z,101660.00
2022-08-19T06:39:58.650Z,101664.00
2022-08-19T06:42:31.859Z,101668.00
2022-08-19T06:45:08.716Z,101662.00
2022-08-19T06:47:42.750Z,101658.00
2022-08-19T06:50:16.314Z,101650.00
2022-08-19T06:52:49.745Z,101643.00
2022-08-19T06:55:24.127Z,101644.00
2022-08-19T06:57:57.107Z,101641.00
2022-08-19T07:00:32.929Z,101629.00
2022-08-19T07:03:07.836Z,101651.00
2022-08-19T07:05:40.064Z,101643.00
2022-08-19T07:08:14.509Z,101645.00
2022-08-19T07:10:50.910Z,101662.00
2022-08-19T07:13:25.026Z,101650.00
2022-08-19T07:15:58.046Z,101649.00
2022-08-19T07:18:31.831Z,101659.00
2022-08-19T07:21:16.968Z,101657.00
2022-08-19T07:23:50.222Z,101665.00
2022-08-19T07:26:28.210Z,101660.00
2022-08-19T07:29:02.465Z,101647.00
2022-08-19T07:31:37.738Z,101647.00
2022-08-19T07:34:13.413Z,101624.00
2022-08-19T07:36:47.239Z,101646.00
2022-08-19T07:39:21.763Z,101642.00
2022-08-19T07:41:54.622Z,101641.00
2022-08-19T07:44:27.776Z,101626.00
2022-08-19T07:47:01.715Z,101629.00
2022-08-19T07:49:34.643Z,101627.00
2022-08-19T07:52:09.396Z,101630.00
2022-08-19T07:54:43.776Z,101615.00
2022-08-19T07:57:17.953Z,101619.00
2022-08-19T07:59:50.764Z,101630.00
2022-08-19T08:02:23.660Z,101622.00
2022-08-19T08:05:13.677Z,101620.00
2022-08-19T08:08:04.071Z,101624.00
2022-08-19T08:10:41.392Z,101622.00
2022-08-19T08:13:15.571Z,101617.00
2022-08-19T08:15:49.040Z,101614.00
2022-08-19T08:18:23.460Z,101619.00
2022-08-19T08:20:58.027Z,101604.00
2022-08-19T08:23:32.040Z,101622.00
2022-08-19T08:26:05.644Z,101606.00
2022-08-19T08:28:38.508Z,101616.00
2022-08-19T08:31:12.099Z,101612.00
2022-08-19T08:33:48.991Z,101583.00
2022-08-19T08:36:22.422Z,101575.00
2022-08-19T08:41:39.743Z,101567.00
2022-08-19T08:44:17.221Z,101574.00
2022-08-19T08:46:55.981Z,101557.00
2022-08-19T08:49:51.210Z,101571.00
2022-08-19T08:52:33.340Z,101554.00
2022-08-19T08:55:14.218Z,101530.00
2022-08-19T08:57:58.618Z,101553.00
2022-08-19T09:00:36.145Z,101532.00
2022-08-19T09:03:13.578Z,101551.00
2022-08-19T09:05:54.944Z,101554.00
2022-08-19T09:08:36.545Z,101555.00
2022-08-19T09:11:14.317Z,101552.00
2022-08-19T09:13:59.595Z,101549.00
2022-08-19T09:16:34.437Z,101545.00
2022-08-19T09:19:09.035Z,101531.00
2022-08-19T09:21:42.279Z,101542.00
2022-08-19T09:24:16.917Z,101565.00
2022-08-19T09:26:52.840Z,101566.00
2022-08-19T09:29:23.870Z,101556.00
2022-08-19T09:31:56.657Z,101547.00
2022-08-19T09:34:29.324Z,101540.00
2022-08-19T09:37:03.038Z,101553.00
2022-08-19T09:39:36.244Z,101557.00
2022-08-19T09:42:16.217Z,101563.00
2022-08-19T09:44:45.459Z,101572.00
2022-08-19T09:47:19.989Z,101576.00
2022-08-19T09:49:53.339Z,101584.00
2022-08-19T09:52:32.970Z,101593.00
2022-08-19T09:55:07.341Z,101597.00
2022-08-19T09:57:41.319Z,101560.00
2022-08-19T10:00:17.566Z,101557.00
2022-08-19T10:02:50.589Z,101550.00
2022-08-19T10:05:42.571Z,101556.00
2022-08-19T10:08:15.812Z,101555.00
2022-08-19T10:10:51.242Z,101554.00
2022-08-19T10:13:27.016Z,101553.00
2022-08-19T10:16:01.897Z,101554.00
2022-08-19T10:18:36.124Z,101563.00
2022-08-19T10:21:14.446Z,101566.00
2022-08-19T10:23:50.246Z,101555.00
2022-08-19T10:26:26.648Z,101551.00
2022-08-19T10:28:59.939Z,101552.00
2022-08-19T10:32:00.558Z,101549.00
2022-08-19T10:34:10.009Z,101539.00
2022-08-19T10:36:52.278Z,101520.00
2022-08-19T10:39:17.128Z,101528.00
2022-08-19T10:41:50.087Z,101512.00
2022-08-19T10:44:24.319Z,101494.00
2022-08-19T10:47:01.274Z,101477.00
2022-08-19T10:49:35.127Z,101475.00
2022-08-19T10:52:32.295Z,101469.00
2022-08-19T10:55:17.685Z,101467.00
2022-08-19T10:58:02.255Z,101453.00
2022-08-19T11:00:26.917Z,101477.00
2022-08-19T11:02:59.977Z,101491.00
2022-08-19T11:05:40.389Z,101483.00
2022-08-19T11:08:22.789Z,101483.00
2022-08-19T11:10:50.522Z,101489.00
2022-08-19T11:13:23.823Z,101469.00
2022-08-19T11:16:08.063Z,101467.00
2022-08-19T11:18:46.416Z,101466.00
2022-08-19T11:21:21.861Z,101453.00
2022-08-19T11:23:56.827Z,101448.00
2022-08-19T11:26:29.999Z,101463.00
2022-08-19T11:29:07.700Z,101460.00
2022-08-19T11:31:41.879Z,101469.00
2022-08-19T11:34:16.816Z,101469.00
2022-08-19T11:36:50.930Z,101471.00
2022-08-19T11:39:25.840Z,101470.00
2022-08-19T11:41:58.647Z,101479.00
2022-08-19T11:44:32.691Z,101450.00
2022-08-19T11:47:08.893Z,101446.00
2022-08-19T11:49:40.689Z,101459.00
2022-08-19T11:52:13.695Z,101463.00
2022-08-19T11:54:46.605Z,101456.00
2022-08-19T11:57:19.888Z,101466.00
2022-08-19T11:59:56.577Z,101463.00
2022-08-19T12:02:29.536Z,101451.00
2022-08-19T12:05:03.576Z,101439.00
2022-08-19T12:07:36.936Z,101436.00
2022-08-19T12:10:10.798Z,101426.00
2022-08-19T12:12:45.491Z,101408.00
2022-08-19T12:15:20.067Z,101410.00
2022-08-19T12:17:53.373Z,101395.00
2022-08-19T12:20:27.257Z,101392.00
2022-08-19T12:23:00.300Z,101392.00
2022-08-19T12:25:33.772Z,101364.00
2022-08-19T12:28:07.514Z,101349.00
2022-08-19T12:30:41.883Z,101365.00
2022-08-19T12:33:18.339Z,101359.00
2022-08-19T12:35:51.417Z,101364.00
2022-08-19T12:38:26.050Z,101346.00
2022-08-19T12:41:00.325Z,101339.00
2022-08-19T12:43:33.214Z,101327.00
2022-08-19T12:46:07.019Z,101336.00
2022-08-19T12:48:42.527Z,101316.00
2022-08-19T12:51:17.326Z,101326.00
2022-08-19T12:53:50.895Z,101323.00
2022-08-19T12:56:23.873Z,101322.00
2022-08-19T12:58:57.057Z,101321.00
2022-08-19T13:01:31.014Z,101321.00
2022-08-19T13:04:04.342Z,101285.00
2022-08-19T13:06:37.112Z,101277.00
2022-08-19T13:09:10.042Z,101316.00
2022-08-19T13:11:43.497Z,101303.00
2022-08-19T13:14:16.683Z,101307.00
2022-08-19T13:16:49.587Z,101316.00
2022-08-19T13:19:23.955Z,101315.00
2022-08-19T13:22:00.176Z,101310.00
2022-08-19T13:24:35.270Z,101314.00
2022-08-19T13:27:09.873Z,101325.00
2022-08-19T13:30:05.908Z,101307.00
2022-08-19T13:32:56.497Z,101295.00
2022-08-19T13:35:29.486Z,101293.00
2022-08-19T13:38:03.619Z,101290.00
2022-08-19T13:40:44.254Z,101294.00
2022-08-19T13:43:23.016Z,101297.00
2022-08-19T13:45:51.322Z,101292.00
2022-08-19T13:48:24.531Z,101288.00
2022-08-19T13:51:01.407Z,101280.00
2022-08-19T13:53:34.402Z,101304.00
2022-08-19T13:56:09.042Z,101308.00
2022-08-19T13:58:42.703Z,101283.00
2022-08-19T14:01:15.884Z,101315.00
2022-08-19T14:03:48.743Z,101292.00
2022-08-19T14:06:21.609Z,101303.00
2022-08-19T14:08:55.420Z,101297.00
2022-08-19T14:11:30.096Z,101336.00
2022-08-19T14:14:02.949Z,101302.00
2022-08-19T14:16:35.789Z,101292.00
2022-08-19T14:19:12.490Z,101295.00
2022-08-19T14:21:45.747Z,101307.00
2022-08-19T14:24:18.636Z,101296.00
2022-08-19T14:26:51.631Z,101278.00
2022-08-19T14:29:24.640Z,101289.00
2022-08-19T14:31:57.525Z,101269.00
2022-08-19T14:34:30.501Z,101247.00
2022-08-19T14:37:03.397Z,101259.00
2022-08-19T14:39:37.123Z,101249.00
2022-08-19T14:42:17.666Z,101238.00
2022-08-19T14:44:50.948Z,101231.00
2022-08-19T14:47:24.055Z,101237.00
2022-08-19T14:49:56.716Z,101211.00
2022-08-19T14:52:29.644Z,101220.00
2022-08-19T14:55:02.917Z,101201.00
2022-08-19T14:57:37.058Z,101225.00
2022-08-19T15:00:12.035Z,101212.00
2022-08-19T15:02:47.080Z,101198.00
2022-08-19T15:05:19.878Z,101220.00
2022-08-19T15:07:52.847Z,101195.00
2022-08-19T15:10:27.152Z,101199.00
2022-08-19T15:12:59.958Z,101180.00
2022-08-19T15:15:33.067Z,101189.00
2022-08-19T15:18:06.678Z,101194.00
2022-08-19T15:20:40.412Z,101188.00
2022-08-19T15:23:19.224Z,101188.00
2022-08-19T15:25:53.202Z,101204.00
2022-08-19T15:28:27.369Z,101197.00
2022-08-19T15:31:00.178Z,101195.00
2022-08-19T15:33:34.500Z,101204.00
2022-08-19T15:36:08.531Z,101230.00
2022-08-19T15:38:46.122Z,101206.00
2022-08-19T15:41:29.885Z,101193.00
2022-08-19T15:44:09.575Z,101190.00
2022-08-19T15:46:43.651Z,101187.00
2022-08-19T15:49:17.489Z,101168.00
2022-08-19T15:51:52.318Z,101153.00
2022-08-19T15:54:26.015Z,101169.00
2022-08-19T15:57:16.624Z,101166.00
2022-08-19T16:00:06.981Z,101172.00
2022-08-19T16:02:57.513Z,101169.00
2022-08-19T16:05:49.524Z,101165.00
2022-08-19T16:08:23.140Z,101162.00
2022-08-19T16:11:00.671Z,101173.00
2022-08-19T16:13:34.818Z,101158.00
2022-08-19T16:16:09.718Z,101156.00
2022-08-19T16:18:42.108Z,101158.00
2022-08-19T16:21:16.091Z,101150.00
2022-08-19T16:23:49.973Z,101158.00
2022-08-19T16:26:23.674Z,101157.00
2022-08-19T16:28:58.303Z,101147.00
2022-08-19T16:31:37.057Z,101167.00
2022-08-19T16:34:10.259Z,101149.00
2022-08-19T16:36:46.195Z,101158.00
2022-08-19T16:39:19.877Z,101164.00
2022-08-19T16:41:53.423Z,101160.00
2022-08-19T16:44:26.403Z,101158.00
2022-08-19T16:47:00.824Z,101169.00
2022-08-19T16:49:54.645Z,101171.00
2022-08-19T16:52:16.774Z,101168.00
2022-08-19T16:54:50.472Z,101164.00
2022-08-19T16:57:24.638Z,101151.00
2022-08-19T16:59:57.683Z,101179.00
2022-08-19T17:02:30.580Z,101170.00
2022-08-19T17:05:03.333Z,101181.00
2022-08-19T17:07:36.245Z,101169.00
2022-08-19T17:10:10.274Z,101166.00
2022-08-19T17:12:43.156Z,101160.00
2022-08-19T17:15:16.256Z,101171.00
2022-08-19T17:17:49.173Z,101179.00
2022-08-19T17:20:22.496Z,101169.00
2022-08-19T17:22:55.980Z,101159.00
2022-08-19T17:25:34.945Z,101168.00
2022-08-19T17:28:19.007Z,101168.00
2022-08-19T17:30:52.160Z,101173.00
2022-08-19T17:33:25.241Z,101172.00
2022-08-19T17:35:58.510Z,101185.00
2022-08-19T17:38:32.149Z,101183.00
2022-08-19T17:41:08.330Z,101187.00
2022-08-19T17:43:43.821Z,101174.00
2022-08-19T17:46:23.985Z,101193.00
2022-08-19T17:49:02.863Z,101188.00
2022-08-19T17:51:43.960Z,101188.00
2022-08-19T17:54:33.733Z,101204.00
2022-08-19T17:57:00.436Z,101205.00
2022-08-19T17:59:33.577Z,101194.00
2022-08-19T18:02:10.963Z,101211.00
2022-08-19T18:04:48.575Z,101211.00
2022-08-19T18:07:21.706Z,101208.00
2022-08-19T18:09:55.760Z,101220.00
2022-08-19T18:12:29.467Z,101224.00
2022-08-19T18:15:04.161Z,101231.00
2022-08-19T18:17:38.200Z,101233.00
2022-08-19T18:20:13.712Z,101233.00
2022-08-19T18:22:48.574Z,101234.00
2022-08-19T18:25:29.324Z,101234.00
2022-08-19T18:28:07.936Z,101240.00
2022-08-19T18:30:40.795Z,101236.00
2022-08-19T18:33:18.645Z,101247.00
2022-08-19T18:35:54.266Z,101244.00
2022-08-19T18:38:44.429Z,101251.00
2022-08-19T18:41:35.207Z,101257.00
2022-08-19T18:44:25.834Z,101253.00
2022-08-19T18:47:23.309Z,101256.00
2022-08-19T18:49:56.232Z,101257.00
2022-08-19T18:52:29.334Z,101258.00
2022-08-19T18:55:02.378Z,101256.00
2022-08-19T18:57:35.563Z,101273.00
2022-08-19T19:00:14.519Z,101260.00
2022-08-19T19:02:48.611Z,101256.00
2022-08-19T19:05:25.035Z,101262.00
2022-08-19T19:07:58.051Z,101265.00
2022-08-19T19:10:30.890Z,101258.00
2022-08-19T19:13:03.837Z,101262.00
2022-08-19T19:15:36.774Z,101261.00
2022-08-19T19:18:09.659Z,101267.00
2022-08-19T19:20:43.569Z,101258.00
2022-08-19T19:23:16.238Z,101258.00
2022-08-19T19:25:51.215Z,101264.00
2022-08-19T19:28:26.630Z,101263.00
2022-08-19T19:31:00.939Z,101262.00
2022-08-19T19:33:34.159Z,101260.00
2022-08-19T19:36:07.630Z,101265.00
2022-08-19T19:38:42.380Z,101265.00
2022-08-19T19:41:15.287Z,101269.00
2022-08-19T19:43:48.272Z,101274.00
2022-08-19T19:46:22.479Z,101268.00
2022-08-19T19:49:00.282Z,101269.00
2022-08-19T19:51:37.861Z,101267.00
2022-08-19T19:54:07.968Z,101269.00
2022-08-19T19:56:51.149Z,101262.00
2022-08-19T19:59:24.916Z,101270.00
2022-08-19T20:01:59.925Z,101265.00
2022-08-19T20:04:32.542Z,101274.00
2022-08-19T20:07:05.642Z,101267.00
2022-08-19T20:09:58.727Z,101263.00
2022-08-19T20:12:13.965Z,101273.00
2022-08-19T20:14:46.976Z,101274.00
2022-08-19T20:17:21.070Z,101282.00
2022-08-19T20:19:54.042Z,101274.00
2022-08-19T20:22:27.738Z,101286.00
2022-08-19T20:25:03.059Z,101286.00
2022-08-19T20:27:40.134Z,101281.00
2022-08-19T20:30:13.884Z,101296.00
2022-08-19T20:32:48.620Z,101295.00
2022-08-19T20:35:22.876Z,101297.00
2022-08-19T20:37:58.394Z,101295.00
2022-08-19T20:40:32.123Z,101286.00
2022-08-19T20:43:05.287Z,101292.00
2022-08-19T20:45:43.154Z,101294.00
2022-08-19T20:48:16.072Z,101306.00
2022-08-19T20:50:50.247Z,101299.00
2022-08-19T20:53:29.464Z,101306.00
2022-08-19T20:56:02.361Z,101310.00
2022-08-19T20:58:36.528Z,101306.00
2022-08-19T21:01:12.102Z,101311.00
2022-08-19T21:03:45.978Z,101318.00
2022-08-19T21:06:19.742Z,101304.00
2022-08-19T21:08:58.563Z,101316.00
2022-08-19T21:11:32.374Z,101323.00
2022-08-19T21:14:05.780Z,101312.00
2022-08-19T21:16:43.934Z,101302.00
2022-08-19T21:19:19.873Z,101309.00
2022-08-19T21:21:51.463Z,101310.00
2022-08-19T21:24:26.426Z,101316.00
2022-08-19T21:26:59.438Z,101318.00
2022-08-19T21:29:34.184Z,101313.00
2022-08-19T21:32:07.907Z,101298.00
2022-08-19T21:34:43.865Z,101324.00
2022-08-19T21:37:25.300Z,101316.00
2022-08-19T21:39:50.368Z,101325.00
2022-08-19T21:42:23.436Z,101331.00
2022-08-19T21:44:56.705Z,101328.00
2022-08-19T21:47:29.821Z,101314.00
2022-08-19T21:50:02.991Z,101342.00
2022-08-19T21:52:36.230Z,101334.00
2022-08-19T21:55:10.231Z,101334.00
2022-08-19T21:57:43.359Z,101324.00
2022-08-19T22:00:21.978Z,101333.00
2022-08-19T22:02:55.236Z,101334.00
2022-08-19T22:05:29.074Z,101348.00
2022-08-19T22:08:03.214Z,101350.00
2022-08-19T22:10:37.903Z,101349.00
2022-08-19T22:13:11.538Z,101334.00
2022-08-19T22:15:48.798Z,101333.00
2022-08-19T22:18:21.755Z,101349.00
2022-08-19T22:20:58.740Z,101339.00
2022-08-19T22:23:31.852Z,101341.00
2022-08-19T22:26:04.853Z,101336.00
2022-08-19T22:28:42.460Z,101339.00
2022-08-19T22:31:16.027Z,101337.00
2022-08-19T22:33:48.919Z,101340.00
2022-08-19T22:36:22.385Z,101330.00
2022-08-19T22:38:56.124Z,101346.00
2022-08-19T22:41:29.647Z,101327.00
2022-08-19T22:44:06.923Z,101333.00
2022-08-19T22:46:40.227Z,101328.00
2022-08-19T22:49:17.300Z,101331.00
2022-08-19T22:52:11.667Z,101333.00
2022-08-19T22:54:44.745Z,101325.00
2022-08-19T22:57:18.115Z,101332.00
2022-08-19T22:59:52.173Z,101313.00
2022-08-19T23:02:29.568Z,101321.00
2022-08-19T23:05:03.348Z,101322.00
2022-08-19T23:07:36.692Z,101334.00
2022-08-19T23:10:11.181Z,101317.00
2022-08-19T23:12:47.002Z,101315.00
2022-08-19T23:15:21.576Z,101324.00
2022-08-19T23:17:54.760Z,101307.00
2022-08-19T23:20:29.454Z,101309.00
2022-08-19T23:23:02.597Z,101305.00
2022-08-19T23:25:41.198Z,101308.00
2022-08-19T23:28:32.188Z,101307.00
2022-08-19T23:31:05.879Z,101307.00
2022-08-19T23:33:51.314Z,101295.00
2022-08-19T23:36:17.017Z,101303.00
2022-08-19T23:38:51.239Z,101305.00
2022-08-19T23:41:25.401Z,101298.00
2022-08-19T23:43:58.535Z,101276.00
2022-08-19T23:46:41.030Z,101285.00
2022-08-19T23:49:13.731Z,101273.00
2022-08-19T23:51:49.582Z,101277.00
2022-08-19T23:54:27.454Z,101275.00
2022-08-19T23:57:00.851Z,101264.00
2022-08-19T23:59:34.318Z,101276.00
